sensor_id;sensor_type;location;lat;lon;timestamp;temperature;humidity
14798;DHT22;7490;63.708;20.368;2023-03-01T00:01:03;3.00;72.90
14798;DHT22;7490;63.708;20.368;2023-03-01T00:03:29;3.00;73.00
14798;DHT22;7490;63.708;20.368;2023-03-01T00:05:55;2.90;73.20
14798;DHT22;7490;63.708;20.368;2023-03-01T00:08:20;3.00;73.50
14798;DHT22;7490;63.708;20.368;2023-03-01T00:10:46;3.10;73.70
14798;DHT22;7490;63.708;20.368;2023-03-01T00:13:11;3.20;73.90
14798;DHT22;7490;63.708;20.368;2023-03-01T00:15:40;3.10;73.90
14798;DHT22;7490;63.708;20.368;2023-03-01T00:18:07;3.20;74.00
14798;DHT22;7490;63.708;20.368;2023-03-01T00:20:33;3.30;74.00
14798;DHT22;7490;63.708;20.368;2023-03-01T00:22:59;3.40;74.00
14798;DHT22;7490;63.708;20.368;2023-03-01T00:25:25;3.40;73.80
14798;DHT22;7490;63.708;20.368;2023-03-01T00:27:51;3.50;73.80
14798;DHT22;7490;63.708;20.368;2023-03-01T00:30:16;3.50;74.20
14798;DHT22;7490;63.708;20.368;2023-03-01T00:32:42;3.60;73.80
14798;DHT22;7490;63.708;20.368;2023-03-01T00:35:08;3.60;73.70
14798;DHT22;7490;63.708;20.368;2023-03-01T00:37:34;3.60;74.40
14798;DHT22;7490;63.708;20.368;2023-03-01T00:39:59;3.70;73.70
14798;DHT22;7490;63.708;20.368;2023-03-01T00:42:25;3.70;73.50
14798;DHT22;7490;63.708;20.368;2023-03-01T00:44:50;3.70;73.40
14798;DHT22;7490;63.708;20.368;2023-03-01T00:47:16;3.70;73.30
14798;DHT22;7490;63.708;20.368;2023-03-01T00:49:42;3.70;73.30
14798;DHT22;7490;63.708;20.368;2023-03-01T00:52:07;3.60;73.20
14798;DHT22;7490;63.708;20.368;2023-03-01T00:54:33;3.50;73.30
14798;DHT22;7490;63.708;20.368;2023-03-01T00:56:59;3.50;73.50
14798;DHT22;7490;63.708;20.368;2023-03-01T00:59:24;3.40;73.50
14798;DHT22;7490;63.708;20.368;2023-03-01T01:01:50;3.50;73.80
14798;DHT22;7490;63.708;20.368;2023-03-01T01:04:16;3.20;73.70
14798;DHT22;7490;63.708;20.368;2023-03-01T01:06:44;3.20;73.70
14798;DHT22;7490;63.708;20.368;2023-03-01T01:09:13;3.10;74.00
14798;DHT22;7490;63.708;20.368;2023-03-01T01:11:49;3.20;74.20
14798;DHT22;7490;63.708;20.368;2023-03-01T01:14:15;3.10;74.50
14798;DHT22;7490;63.708;20.368;2023-03-01T01:16:41;3.10;74.50
14798;DHT22;7490;63.708;20.368;2023-03-01T01:19:07;3.10;74.50
14798;DHT22;7490;63.708;20.368;2023-03-01T01:21:34;3.10;74.60
14798;DHT22;7490;63.708;20.368;2023-03-01T01:24:00;3.00;74.60
14798;DHT22;7490;63.708;20.368;2023-03-01T01:26:28;3.10;74.80
14798;DHT22;7490;63.708;20.368;2023-03-01T01:28:54;3.00;74.90
14798;DHT22;7490;63.708;20.368;2023-03-01T01:31:21;3.00;75.00
14798;DHT22;7490;63.708;20.368;2023-03-01T01:33:49;3.10;75.20
14798;DHT22;7490;63.708;20.368;2023-03-01T01:36:15;3.00;75.30
14798;DHT22;7490;63.708;20.368;2023-03-01T01:38:41;3.10;75.50
14798;DHT22;7490;63.708;20.368;2023-03-01T01:41:08;3.10;75.50
14798;DHT22;7490;63.708;20.368;2023-03-01T01:43:36;3.10;75.60
14798;DHT22;7490;63.708;20.368;2023-03-01T01:46:06;3.10;75.70
14798;DHT22;7490;63.708;20.368;2023-03-01T01:48:53;3.10;75.90
14798;DHT22;7490;63.708;20.368;2023-03-01T01:51:27;3.30;76.10
14798;DHT22;7490;63.708;20.368;2023-03-01T01:53:58;3.20;75.90
14798;DHT22;7490;63.708;20.368;2023-03-01T01:56:26;3.20;75.90
14798;DHT22;7490;63.708;20.368;2023-03-01T01:58:53;3.30;76.20
14798;DHT22;7490;63.708;20.368;2023-03-01T02:01:19;3.30;76.40
14798;DHT22;7490;63.708;20.368;2023-03-01T02:03:46;3.40;76.40
14798;DHT22;7490;63.708;20.368;2023-03-01T02:08:48;3.40;76.60
14798;DHT22;7490;63.708;20.368;2023-03-01T02:11:15;3.50;76.80
14798;DHT22;7490;63.708;20.368;2023-03-01T02:13:41;3.50;76.70
14798;DHT22;7490;63.708;20.368;2023-03-01T02:16:13;3.50;76.70
14798;DHT22;7490;63.708;20.368;2023-03-01T02:18:41;3.60;76.80
14798;DHT22;7490;63.708;20.368;2023-03-01T02:24:39;3.70;77.00
14798;DHT22;7490;63.708;20.368;2023-03-01T02:27:09;3.70;76.90
14798;DHT22;7490;63.708;20.368;2023-03-01T02:29:35;3.70;76.70
14798;DHT22;7490;63.708;20.368;2023-03-01T02:32:02;3.70;76.90
14798;DHT22;7490;63.708;20.368;2023-03-01T02:34:30;3.70;77.10
14798;DHT22;7490;63.708;20.368;2023-03-01T02:37:00;3.80;77.20
14798;DHT22;7490;63.708;20.368;2023-03-01T02:39:53;3.80;77.20
14798;DHT22;7490;63.708;20.368;2023-03-01T02:42:23;3.90;77.30
14798;DHT22;7490;63.708;20.368;2023-03-01T02:44:51;3.90;77.10
14798;DHT22;7490;63.708;20.368;2023-03-01T02:47:16;3.90;77.10
14798;DHT22;7490;63.708;20.368;2023-03-01T02:49:42;4.00;77.20
14798;DHT22;7490;63.708;20.368;2023-03-01T02:54:57;4.00;77.40
14798;DHT22;7490;63.708;20.368;2023-03-01T02:57:25;4.00;77.40
14798;DHT22;7490;63.708;20.368;2023-03-01T02:59:57;4.00;77.40
14798;DHT22;7490;63.708;20.368;2023-03-01T03:02:29;4.00;77.50
14798;DHT22;7490;63.708;20.368;2023-03-01T03:05:14;4.00;77.40
14798;DHT22;7490;63.708;20.368;2023-03-01T03:07:43;4.10;77.60
14798;DHT22;7490;63.708;20.368;2023-03-01T03:10:16;4.10;77.60
14798;DHT22;7490;63.708;20.368;2023-03-01T03:12:42;4.10;77.60
14798;DHT22;7490;63.708;20.368;2023-03-01T03:15:09;4.10;77.50
14798;DHT22;7490;63.708;20.368;2023-03-01T03:17:39;4.10;77.50
14798;DHT22;7490;63.708;20.368;2023-03-01T03:20:06;4.30;77.60
14798;DHT22;7490;63.708;20.368;2023-03-01T03:22:36;4.20;77.50
14798;DHT22;7490;63.708;20.368;2023-03-01T03:25:02;4.20;77.50
14798;DHT22;7490;63.708;20.368;2023-03-01T03:27:28;4.20;78.30
14798;DHT22;7490;63.708;20.368;2023-03-01T03:29:54;4.20;77.50
14798;DHT22;7490;63.708;20.368;2023-03-01T03:32:19;4.10;77.50
14798;DHT22;7490;63.708;20.368;2023-03-01T03:34:45;4.10;77.50
14798;DHT22;7490;63.708;20.368;2023-03-01T03:37:11;4.10;77.70
14798;DHT22;7490;63.708;20.368;2023-03-01T03:39:56;4.10;77.80
14798;DHT22;7490;63.708;20.368;2023-03-01T03:42:22;4.10;77.80
14798;DHT22;7490;63.708;20.368;2023-03-01T03:44:48;4.10;77.80
14798;DHT22;7490;63.708;20.368;2023-03-01T03:47:14;4.10;77.90
14798;DHT22;7490;63.708;20.368;2023-03-01T03:49:39;4.20;78.00
14798;DHT22;7490;63.708;20.368;2023-03-01T03:52:05;4.20;77.90
14798;DHT22;7490;63.708;20.368;2023-03-01T03:54:39;4.40;78.10
14798;DHT22;7490;63.708;20.368;2023-03-01T03:57:06;4.20;78.00
14798;DHT22;7490;63.708;20.368;2023-03-01T03:59:32;4.20;78.10
14798;DHT22;7490;63.708;20.368;2023-03-01T04:01:58;4.20;78.20
14798;DHT22;7490;63.708;20.368;2023-03-01T04:04:23;4.20;78.10
14798;DHT22;7490;63.708;20.368;2023-03-01T04:06:49;4.20;78.20
14798;DHT22;7490;63.708;20.368;2023-03-01T04:09:15;4.20;78.20
14798;DHT22;7490;63.708;20.368;2023-03-01T04:11:40;4.20;78.30
14798;DHT22;7490;63.708;20.368;2023-03-01T04:14:06;4.30;78.50
14798;DHT22;7490;63.708;20.368;2023-03-01T04:16:32;4.30;78.70
14798;DHT22;7490;63.708;20.368;2023-03-01T04:18:57;4.40;78.90
14798;DHT22;7490;63.708;20.368;2023-03-01T04:21:25;4.40;78.90
14798;DHT22;7490;63.708;20.368;2023-03-01T04:23:50;4.50;78.90
14798;DHT22;7490;63.708;20.368;2023-03-01T04:26:19;4.50;78.90
14798;DHT22;7490;63.708;20.368;2023-03-01T04:28:45;4.60;79.00
14798;DHT22;7490;63.708;20.368;2023-03-01T04:31:19;4.60;79.00
14798;DHT22;7490;63.708;20.368;2023-03-01T04:33:54;4.90;79.10
14798;DHT22;7490;63.708;20.368;2023-03-01T04:36:27;4.70;79.00
14798;DHT22;7490;63.708;20.368;2023-03-01T04:38:54;4.70;78.90
14798;DHT22;7490;63.708;20.368;2023-03-01T04:41:21;4.70;78.80
14798;DHT22;7490;63.708;20.368;2023-03-01T04:43:47;4.80;78.80
14798;DHT22;7490;63.708;20.368;2023-03-01T04:46:17;4.80;78.80
14798;DHT22;7490;63.708;20.368;2023-03-01T04:48:44;4.80;78.90
14798;DHT22;7490;63.708;20.368;2023-03-01T04:51:10;4.80;78.90
14798;DHT22;7490;63.708;20.368;2023-03-01T04:53:39;4.90;78.80
14798;DHT22;7490;63.708;20.368;2023-03-01T04:56:05;4.90;78.70
14798;DHT22;7490;63.708;20.368;2023-03-01T04:58:31;4.90;78.80
14798;DHT22;7490;63.708;20.368;2023-03-01T05:00:57;4.90;78.80
14798;DHT22;7490;63.708;20.368;2023-03-01T05:03:23;4.60;78.60
14798;DHT22;7490;63.708;20.368;2023-03-01T05:05:50;4.90;78.80
14798;DHT22;7490;63.708;20.368;2023-03-01T05:08:16;4.90;78.90
14798;DHT22;7490;63.708;20.368;2023-03-01T05:10:55;5.20;79.10
14798;DHT22;7490;63.708;20.368;2023-03-01T05:13:21;5.00;78.90
14798;DHT22;7490;63.708;20.368;2023-03-01T05:15:58;5.00;78.90
14798;DHT22;7490;63.708;20.368;2023-03-01T05:18:26;5.00;78.80
14798;DHT22;7490;63.708;20.368;2023-03-01T05:20:52;5.00;79.60
14798;DHT22;7490;63.708;20.368;2023-03-01T05:23:18;4.90;78.80
14798;DHT22;7490;63.708;20.368;2023-03-01T05:25:44;5.00;78.80
14798;DHT22;7490;63.708;20.368;2023-03-01T05:28:11;4.90;78.80
14798;DHT22;7490;63.708;20.368;2023-03-01T05:30:37;5.00;79.00
14798;DHT22;7490;63.708;20.368;2023-03-01T05:33:06;5.00;79.00
14798;DHT22;7490;63.708;20.368;2023-03-01T05:35:42;5.00;79.30
14798;DHT22;7490;63.708;20.368;2023-03-01T05:38:09;5.00;79.00
14798;DHT22;7490;63.708;20.368;2023-03-01T05:40:39;5.00;79.10
14798;DHT22;7490;63.708;20.368;2023-03-01T05:43:05;5.00;79.10
14798;DHT22;7490;63.708;20.368;2023-03-01T05:45:32;5.00;79.00
14798;DHT22;7490;63.708;20.368;2023-03-01T05:48:00;5.00;79.00
14798;DHT22;7490;63.708;20.368;2023-03-01T05:50:28;5.00;79.00
14798;DHT22;7490;63.708;20.368;2023-03-01T05:53:23;5.00;79.00
14798;DHT22;7490;63.708;20.368;2023-03-01T05:55:48;5.00;78.90
14798;DHT22;7490;63.708;20.368;2023-03-01T05:58:17;5.00;78.80
14798;DHT22;7490;63.708;20.368;2023-03-01T06:00:44;5.00;78.70
14798;DHT22;7490;63.708;20.368;2023-03-01T06:03:11;5.00;78.70
14798;DHT22;7490;63.708;20.368;2023-03-01T06:05:37;5.00;78.70
14798;DHT22;7490;63.708;20.368;2023-03-01T06:08:04;5.00;78.80
14798;DHT22;7490;63.708;20.368;2023-03-01T06:10:30;5.00;78.80
14798;DHT22;7490;63.708;20.368;2023-03-01T06:12:56;5.00;78.90
14798;DHT22;7490;63.708;20.368;2023-03-01T06:15:23;5.10;78.80
14798;DHT22;7490;63.708;20.368;2023-03-01T06:17:49;5.10;78.90
14798;DHT22;7490;63.708;20.368;2023-03-01T06:20:23;5.10;79.00
14798;DHT22;7490;63.708;20.368;2023-03-01T06:22:49;5.20;79.10
14798;DHT22;7490;63.708;20.368;2023-03-01T06:25:17;5.20;79.00
14798;DHT22;7490;63.708;20.368;2023-03-01T06:27:43;5.30;79.10
14798;DHT22;7490;63.708;20.368;2023-03-01T06:30:11;5.30;79.20
14798;DHT22;7490;63.708;20.368;2023-03-01T06:32:38;5.50;79.90
14798;DHT22;7490;63.708;20.368;2023-03-01T06:35:08;5.90;80.10
14798;DHT22;7490;63.708;20.368;2023-03-01T06:37:34;6.20;79.60
14798;DHT22;7490;63.708;20.368;2023-03-01T06:40:01;6.40;78.80
14798;DHT22;7490;63.708;20.368;2023-03-01T06:42:32;6.60;78.30
14798;DHT22;7490;63.708;20.368;2023-03-01T06:44:58;6.60;77.80
14798;DHT22;7490;63.708;20.368;2023-03-01T06:47:23;6.60;77.70
14798;DHT22;7490;63.708;20.368;2023-03-01T06:49:49;6.70;77.70
14798;DHT22;7490;63.708;20.368;2023-03-01T06:52:14;6.80;77.50
14798;DHT22;7490;63.708;20.368;2023-03-01T06:54:40;6.80;77.40
14798;DHT22;7490;63.708;20.368;2023-03-01T06:57:06;6.90;77.60
14798;DHT22;7490;63.708;20.368;2023-03-01T06:59:31;7.20;78.10
14798;DHT22;7490;63.708;20.368;2023-03-01T07:01:57;7.80;78.70
14798;DHT22;7490;63.708;20.368;2023-03-01T07:04:22;8.80;78.50
14798;DHT22;7490;63.708;20.368;2023-03-01T07:06:48;9.80;77.10
14798;DHT22;7490;63.708;20.368;2023-03-01T07:09:21;10.80;75.50
14798;DHT22;7490;63.708;20.368;2023-03-01T07:11:47;11.90;73.40
14798;DHT22;7490;63.708;20.368;2023-03-01T07:14:13;12.70;70.60
14798;DHT22;7490;63.708;20.368;2023-03-01T07:16:39;12.70;68.00
14798;DHT22;7490;63.708;20.368;2023-03-01T07:19:05;12.30;66.50
14798;DHT22;7490;63.708;20.368;2023-03-01T07:21:31;11.80;66.20
14798;DHT22;7490;63.708;20.368;2023-03-01T07:23:57;11.30;66.50
14798;DHT22;7490;63.708;20.368;2023-03-01T07:26:22;10.70;66.90
14798;DHT22;7490;63.708;20.368;2023-03-01T07:28:48;10.30;67.70
14798;DHT22;7490;63.708;20.368;2023-03-01T07:31:14;9.90;68.10
14798;DHT22;7490;63.708;20.368;2023-03-01T07:33:40;9.60;68.60
14798;DHT22;7490;63.708;20.368;2023-03-01T07:36:06;9.40;69.20
14798;DHT22;7490;63.708;20.368;2023-03-01T07:38:32;9.20;69.50
14798;DHT22;7490;63.708;20.368;2023-03-01T07:40:59;9.00;69.60
14798;DHT22;7490;63.708;20.368;2023-03-01T07:43:26;8.90;70.20
14798;DHT22;7490;63.708;20.368;2023-03-01T07:45:52;8.90;71.10
14798;DHT22;7490;63.708;20.368;2023-03-01T07:48:17;8.90;70.90
14798;DHT22;7490;63.708;20.368;2023-03-01T07:50:43;8.90;70.60
14798;DHT22;7490;63.708;20.368;2023-03-01T07:53:10;9.00;71.30
14798;DHT22;7490;63.708;20.368;2023-03-01T07:55:36;9.50;72.00
14798;DHT22;7490;63.708;20.368;2023-03-01T07:58:01;10.70;72.30
14798;DHT22;7490;63.708;20.368;2023-03-01T08:00:27;12.40;70.10
14798;DHT22;7490;63.708;20.368;2023-03-01T08:02:53;13.70;67.10
14798;DHT22;7490;63.708;20.368;2023-03-01T08:05:18;14.80;64.20
14798;DHT22;7490;63.708;20.368;2023-03-01T08:07:44;14.90;61.60
14798;DHT22;7490;63.708;20.368;2023-03-01T08:10:10;14.60;60.20
14798;DHT22;7490;63.708;20.368;2023-03-01T08:12:36;14.00;60.00
14798;DHT22;7490;63.708;20.368;2023-03-01T08:15:02;13.40;60.10
14798;DHT22;7490;63.708;20.368;2023-03-01T08:17:28;12.80;60.80
14798;DHT22;7490;63.708;20.368;2023-03-01T08:19:54;12.30;61.70
14798;DHT22;7490;63.708;20.368;2023-03-01T08:22:19;11.90;62.60
14798;DHT22;7490;63.708;20.368;2023-03-01T08:24:46;11.50;63.00
14798;DHT22;7490;63.708;20.368;2023-03-01T08:27:11;11.20;63.20
14798;DHT22;7490;63.708;20.368;2023-03-01T08:29:37;10.80;63.50
14798;DHT22;7490;63.708;20.368;2023-03-01T08:32:03;10.60;64.20
14798;DHT22;7490;63.708;20.368;2023-03-01T08:34:29;10.30;64.70
14798;DHT22;7490;63.708;20.368;2023-03-01T08:36:56;10.20;65.30
14798;DHT22;7490;63.708;20.368;2023-03-01T08:39:22;10.10;66.30
14798;DHT22;7490;63.708;20.368;2023-03-01T08:41:48;10.80;68.50
14798;DHT22;7490;63.708;20.368;2023-03-01T08:44:15;12.40;68.00
14798;DHT22;7490;63.708;20.368;2023-03-01T08:46:42;14.40;65.20
14798;DHT22;7490;63.708;20.368;2023-03-01T08:49:14;16.20;61.80
14798;DHT22;7490;63.708;20.368;2023-03-01T08:51:41;17.70;58.50
14798;DHT22;7490;63.708;20.368;2023-03-01T08:54:10;18.90;56.70
14798;DHT22;7490;63.708;20.368;2023-03-01T08:56:36;19.90;54.50
14798;DHT22;7490;63.708;20.368;2023-03-01T08:59:02;20.50;52.70
14798;DHT22;7490;63.708;20.368;2023-03-01T09:01:28;21.10;51.60
14798;DHT22;7490;63.708;20.368;2023-03-01T09:03:54;21.60;50.50
14798;DHT22;7490;63.708;20.368;2023-03-01T09:06:19;22.10;49.60
14798;DHT22;7490;63.708;20.368;2023-03-01T09:08:47;22.50;47.90
14798;DHT22;7490;63.708;20.368;2023-03-01T09:11:16;22.20;46.90
14798;DHT22;7490;63.708;20.368;2023-03-01T09:13:43;22.20;47.00
14798;DHT22;7490;63.708;20.368;2023-03-01T09:16:10;22.40;46.70
14798;DHT22;7490;63.708;20.368;2023-03-01T09:18:36;22.80;46.00
14798;DHT22;7490;63.708;20.368;2023-03-01T09:21:03;23.10;45.20
14798;DHT22;7490;63.708;20.368;2023-03-01T09:23:33;23.50;44.60
14798;DHT22;7490;63.708;20.368;2023-03-01T09:25:59;23.70;43.50
14798;DHT22;7490;63.708;20.368;2023-03-01T09:28:25;23.90;42.80
14798;DHT22;7490;63.708;20.368;2023-03-01T09:30:50;24.00;42.20
14798;DHT22;7490;63.708;20.368;2023-03-01T09:33:16;24.30;42.00
14798;DHT22;7490;63.708;20.368;2023-03-01T09:35:42;24.50;41.10
14798;DHT22;7490;63.708;20.368;2023-03-01T09:38:13;24.70;40.60
14798;DHT22;7490;63.708;20.368;2023-03-01T09:40:43;24.90;40.10
14798;DHT22;7490;63.708;20.368;2023-03-01T09:43:37;25.10;39.10
14798;DHT22;7490;63.708;20.368;2023-03-01T09:46:09;25.20;38.30
14798;DHT22;7490;63.708;20.368;2023-03-01T09:48:51;25.30;38.60
14798;DHT22;7490;63.708;20.368;2023-03-01T09:51:24;25.20;37.60
14798;DHT22;7490;63.708;20.368;2023-03-01T09:53:51;25.10;38.10
14798;DHT22;7490;63.708;20.368;2023-03-01T09:56:24;25.20;38.20
14798;DHT22;7490;63.708;20.368;2023-03-01T10:06:39;25.70;36.10
14798;DHT22;7490;63.708;20.368;2023-03-01T10:09:14;25.70;36.50
14798;DHT22;7490;63.708;20.368;2023-03-01T10:11:45;25.70;36.00
14798;DHT22;7490;63.708;20.368;2023-03-01T10:14:36;25.70;35.90
14798;DHT22;7490;63.708;20.368;2023-03-01T10:17:12;25.80;35.30
14798;DHT22;7490;63.708;20.368;2023-03-01T10:19:45;25.80;35.60
14798;DHT22;7490;63.708;20.368;2023-03-01T10:22:26;25.90;35.60
14798;DHT22;7490;63.708;20.368;2023-03-01T10:24:54;26.00;35.30
14798;DHT22;7490;63.708;20.368;2023-03-01T10:32:32;26.20;34.10
14798;DHT22;7490;63.708;20.368;2023-03-01T10:34:58;26.00;34.50
14798;DHT22;7490;63.708;20.368;2023-03-01T10:37:24;25.80;34.50
14798;DHT22;7490;63.708;20.368;2023-03-01T10:42:57;25.40;33.90
14798;DHT22;7490;63.708;20.368;2023-03-01T10:48:20;25.10;34.60
14798;DHT22;7490;63.708;20.368;2023-03-01T10:50:51;25.20;34.00
14798;DHT22;7490;63.708;20.368;2023-03-01T10:56:09;25.00;34.30
14798;DHT22;7490;63.708;20.368;2023-03-01T10:58:38;24.90;34.00
14798;DHT22;7490;63.708;20.368;2023-03-01T11:01:08;24.90;34.20
14798;DHT22;7490;63.708;20.368;2023-03-01T11:06:34;24.50;33.80
14798;DHT22;7490;63.708;20.368;2023-03-01T11:09:21;24.50;34.40
14798;DHT22;7490;63.708;20.368;2023-03-01T11:11:55;24.50;33.80
14798;DHT22;7490;63.708;20.368;2023-03-01T11:14:35;24.50;34.00
14798;DHT22;7490;63.708;20.368;2023-03-01T11:17:04;24.40;34.10
14798;DHT22;7490;63.708;20.368;2023-03-01T11:19:32;24.40;34.10
14798;DHT22;7490;63.708;20.368;2023-03-01T11:22:19;24.40;34.00
14798;DHT22;7490;63.708;20.368;2023-03-01T11:24:54;24.10;33.50
14798;DHT22;7490;63.708;20.368;2023-03-01T11:27:36;24.00;33.80
14798;DHT22;7490;63.708;20.368;2023-03-01T11:30:09;23.70;33.90
14798;DHT22;7490;63.708;20.368;2023-03-01T11:32:48;23.40;34.40
14798;DHT22;7490;63.708;20.368;2023-03-01T11:35:21;23.00;34.70
14798;DHT22;7490;63.708;20.368;2023-03-01T11:43:13;21.70;35.50
14798;DHT22;7490;63.708;20.368;2023-03-01T11:56:39;16.80;41.80
14798;DHT22;7490;63.708;20.368;2023-03-01T12:15:55;14.10;46.70
14798;DHT22;7490;63.708;20.368;2023-03-01T12:29:34;13.20;48.70
14798;DHT22;7490;63.708;20.368;2023-03-01T12:37:29;13.00;49.40
14798;DHT22;7490;63.708;20.368;2023-03-01T12:51:06;12.50;50.50
14798;DHT22;7490;63.708;20.368;2023-03-01T12:53:40;12.50;50.70
14798;DHT22;7490;63.708;20.368;2023-03-01T12:56:28;12.40;50.90
14798;DHT22;7490;63.708;20.368;2023-03-01T12:59:13;12.40;51.20
14798;DHT22;7490;63.708;20.368;2023-03-01T13:06:58;12.30;51.60
14798;DHT22;7490;63.708;20.368;2023-03-01T13:09:39;12.30;51.60
14798;DHT22;7490;63.708;20.368;2023-03-01T13:17:51;12.30;51.80
14798;DHT22;7490;63.708;20.368;2023-03-01T13:20:20;12.30;51.80
14798;DHT22;7490;63.708;20.368;2023-03-01T13:22:47;12.20;52.40
14798;DHT22;7490;63.708;20.368;2023-03-01T13:25:19;12.20;51.90
14798;DHT22;7490;63.708;20.368;2023-03-01T13:27:46;12.20;52.00
14798;DHT22;7490;63.708;20.368;2023-03-01T13:35:57;12.10;52.30
14798;DHT22;7490;63.708;20.368;2023-03-01T13:41:16;12.10;52.70
14798;DHT22;7490;63.708;20.368;2023-03-01T13:43:44;12.20;52.70
14798;DHT22;7490;63.708;20.368;2023-03-01T13:48:41;12.30;52.80
14798;DHT22;7490;63.708;20.368;2023-03-01T13:51:10;12.50;52.90
14798;DHT22;7490;63.708;20.368;2023-03-01T13:53:42;12.60;52.70
14798;DHT22;7490;63.708;20.368;2023-03-01T13:56:17;12.70;52.60
14798;DHT22;7490;63.708;20.368;2023-03-01T13:58:47;12.80;52.50
14798;DHT22;7490;63.708;20.368;2023-03-01T14:01:31;12.90;52.30
14798;DHT22;7490;63.708;20.368;2023-03-01T14:03:59;12.90;52.10
14798;DHT22;7490;63.708;20.368;2023-03-01T14:06:28;12.90;52.00
14798;DHT22;7490;63.708;20.368;2023-03-01T14:09:04;13.00;52.10
14798;DHT22;7490;63.708;20.368;2023-03-01T14:19:41;12.60;51.90
14798;DHT22;7490;63.708;20.368;2023-03-01T14:22:22;12.50;52.00
14798;DHT22;7490;63.708;20.368;2023-03-01T14:25:05;12.30;52.20
14798;DHT22;7490;63.708;20.368;2023-03-01T14:27:37;12.20;52.50
14798;DHT22;7490;63.708;20.368;2023-03-01T14:30:12;12.20;52.60
14798;DHT22;7490;63.708;20.368;2023-03-01T14:32:39;12.10;52.70
14798;DHT22;7490;63.708;20.368;2023-03-01T14:35:21;12.00;52.60
14798;DHT22;7490;63.708;20.368;2023-03-01T14:37:47;11.90;52.80
14798;DHT22;7490;63.708;20.368;2023-03-01T14:40:41;11.90;52.80
14798;DHT22;7490;63.708;20.368;2023-03-01T14:43:13;11.70;52.90
14798;DHT22;7490;63.708;20.368;2023-03-01T14:45:48;11.60;53.00
14798;DHT22;7490;63.708;20.368;2023-03-01T14:48:15;11.50;53.10
14798;DHT22;7490;63.708;20.368;2023-03-01T14:50:42;11.40;53.30
14798;DHT22;7490;63.708;20.368;2023-03-01T14:53:25;11.30;53.40
14798;DHT22;7490;63.708;20.368;2023-03-01T14:55:59;11.20;53.50
14798;DHT22;7490;63.708;20.368;2023-03-01T14:58:27;11.20;53.60
14798;DHT22;7490;63.708;20.368;2023-03-01T15:00:59;11.00;53.70
14798;DHT22;7490;63.708;20.368;2023-03-01T15:03:35;10.90;54.00
14798;DHT22;7490;63.708;20.368;2023-03-01T15:06:06;10.80;54.10
14798;DHT22;7490;63.708;20.368;2023-03-01T15:08:33;10.80;54.30
14798;DHT22;7490;63.708;20.368;2023-03-01T15:11:29;10.80;54.30
14798;DHT22;7490;63.708;20.368;2023-03-01T15:13:55;10.70;54.50
14798;DHT22;7490;63.708;20.368;2023-03-01T15:16:32;10.70;54.50
14798;DHT22;7490;63.708;20.368;2023-03-01T15:19:04;10.60;54.60
14798;DHT22;7490;63.708;20.368;2023-03-01T15:21:33;10.60;54.70
14798;DHT22;7490;63.708;20.368;2023-03-01T15:26:51;10.50;54.70
14798;DHT22;7490;63.708;20.368;2023-03-01T15:29:22;10.40;54.70
14798;DHT22;7490;63.708;20.368;2023-03-01T15:31:57;10.40;54.80
14798;DHT22;7490;63.708;20.368;2023-03-01T15:34:26;10.30;54.90
14798;DHT22;7490;63.708;20.368;2023-03-01T15:36:54;10.20;55.00
14798;DHT22;7490;63.708;20.368;2023-03-01T15:39:53;10.10;55.10
14798;DHT22;7490;63.708;20.368;2023-03-01T15:45:11;10.00;55.40
14798;DHT22;7490;63.708;20.368;2023-03-01T15:48:03;9.90;55.60
14798;DHT22;7490;63.708;20.368;2023-03-01T15:50:32;9.80;55.70
14798;DHT22;7490;63.708;20.368;2023-03-01T15:52:59;9.70;55.80
14798;DHT22;7490;63.708;20.368;2023-03-01T15:55:31;9.60;55.80
14798;DHT22;7490;63.708;20.368;2023-03-01T15:58:13;9.50;56.00
14798;DHT22;7490;63.708;20.368;2023-03-01T16:00:39;9.50;56.20
14798;DHT22;7490;63.708;20.368;2023-03-01T16:03:05;9.30;56.10
14798;DHT22;7490;63.708;20.368;2023-03-01T16:05:34;9.20;56.20
14798;DHT22;7490;63.708;20.368;2023-03-01T16:08:02;9.10;56.50
14798;DHT22;7490;63.708;20.368;2023-03-01T16:10:28;9.00;56.60
14798;DHT22;7490;63.708;20.368;2023-03-01T16:12:54;8.90;56.80
14798;DHT22;7490;63.708;20.368;2023-03-01T16:15:33;8.80;56.90
14798;DHT22;7490;63.708;20.368;2023-03-01T16:18:04;8.70;57.20
14798;DHT22;7490;63.708;20.368;2023-03-01T16:20:30;8.70;57.40
14798;DHT22;7490;63.708;20.368;2023-03-01T16:23:01;8.60;57.50
14798;DHT22;7490;63.708;20.368;2023-03-01T16:25:28;8.60;57.70
14798;DHT22;7490;63.708;20.368;2023-03-01T16:27:54;8.50;57.80
14798;DHT22;7490;63.708;20.368;2023-03-01T16:30:22;8.40;57.90
14798;DHT22;7490;63.708;20.368;2023-03-01T16:32:49;8.30;58.10
14798;DHT22;7490;63.708;20.368;2023-03-01T16:35:17;8.30;58.90
14798;DHT22;7490;63.708;20.368;2023-03-01T16:37:44;8.20;58.40
14798;DHT22;7490;63.708;20.368;2023-03-01T16:40:19;8.20;58.50
14798;DHT22;7490;63.708;20.368;2023-03-01T16:42:47;8.10;58.80
14798;DHT22;7490;63.708;20.368;2023-03-01T16:45:12;8.00;58.90
14798;DHT22;7490;63.708;20.368;2023-03-01T16:47:38;8.00;59.10
14798;DHT22;7490;63.708;20.368;2023-03-01T16:50:04;7.90;59.30
14798;DHT22;7490;63.708;20.368;2023-03-01T16:52:29;7.90;59.50
14798;DHT22;7490;63.708;20.368;2023-03-01T16:54:55;7.80;59.50
14798;DHT22;7490;63.708;20.368;2023-03-01T16:57:21;7.80;59.70
14798;DHT22;7490;63.708;20.368;2023-03-01T16:59:46;7.70;59.90
14798;DHT22;7490;63.708;20.368;2023-03-01T17:02:12;7.60;59.90
14798;DHT22;7490;63.708;20.368;2023-03-01T17:04:40;7.80;60.30
14798;DHT22;7490;63.708;20.368;2023-03-01T17:07:06;7.50;60.30
14798;DHT22;7490;63.708;20.368;2023-03-01T17:09:36;7.50;60.50
14798;DHT22;7490;63.708;20.368;2023-03-01T17:12:05;7.40;60.80
14798;DHT22;7490;63.708;20.368;2023-03-01T17:14:31;7.30;60.90
14798;DHT22;7490;63.708;20.368;2023-03-01T17:16:57;7.40;61.10
14798;DHT22;7490;63.708;20.368;2023-03-01T17:19:23;7.20;61.30
14798;DHT22;7490;63.708;20.368;2023-03-01T17:21:49;7.20;61.60
14798;DHT22;7490;63.708;20.368;2023-03-01T17:24:14;7.20;61.80
14798;DHT22;7490;63.708;20.368;2023-03-01T17:26:40;7.10;62.00
14798;DHT22;7490;63.708;20.368;2023-03-01T17:29:06;7.10;63.00
14798;DHT22;7490;63.708;20.368;2023-03-01T17:31:33;7.00;62.30
14798;DHT22;7490;63.708;20.368;2023-03-01T17:33:59;7.00;62.60
14798;DHT22;7490;63.708;20.368;2023-03-01T17:36:24;7.00;62.80
14798;DHT22;7490;63.708;20.368;2023-03-01T17:38:51;6.90;62.90
14798;DHT22;7490;63.708;20.368;2023-03-01T17:41:17;6.90;63.20
14798;DHT22;7490;63.708;20.368;2023-03-01T17:43:46;6.90;63.30
14798;DHT22;7490;63.708;20.368;2023-03-01T17:46:12;6.80;63.50
14798;DHT22;7490;63.708;20.368;2023-03-01T17:48:38;6.80;63.70
14798;DHT22;7490;63.708;20.368;2023-03-01T17:51:08;6.70;63.90
14798;DHT22;7490;63.708;20.368;2023-03-01T17:53:35;6.70;64.20
14798;DHT22;7490;63.708;20.368;2023-03-01T17:56:03;6.70;64.50
14798;DHT22;7490;63.708;20.368;2023-03-01T17:58:30;6.70;64.90
14798;DHT22;7490;63.708;20.368;2023-03-01T18:01:05;6.70;64.90